sensor_id;sensor_type;location;lat;lon;timestamp;pressure;altitude;pressure_sealevel;temperature;humidity
73674;BME280;61975;48.660;10.164;2022-12-07T00:01:06;95534.44;;;2.76;100.00
73674;BME280;61975;48.660;10.164;2022-12-07T00:03:32;95536.69;;;2.74;100.00
73674;BME280;61975;48.660;10.164;2022-12-07T00:05:59;95535.09;;;2.73;100.00
73674;BME280;61975;48.660;10.164;2022-12-07T00:08:25;95537.59;;;2.66;100.00
73674;BME280;61975;48.660;10.164;2022-12-07T00:10:50;95533.22;;;2.65;100.00
73674;BME280;61975;48.660;10.164;2022-12-07T00:13:16;95540.19;;;2.62;100.00
73674;BME280;61975;48.660;10.164;2022-12-07T00:15:41;95534.44;;;2.55;100.00
73674;BME280;61975;48.660;10.164;2022-12-07T00:18:06;95534.78;;;2.54;100.00
73674;BME280;61975;48.660;10.164;2022-12-07T00:20:32;95547.69;;;2.53;100.00
73674;BME280;61975;48.660;10.164;2022-12-07T00:22:59;95538.19;;;2.51;100.00
73674;BME280;61975;48.660;10.164;2022-12-07T00:25:25;95531.31;;;2.45;100.00
73674;BME280;61975;48.660;10.164;2022-12-07T00:27:52;95537.59;;;2.45;100.00
73674;BME280;61975;48.660;10.164;2022-12-07T00:30:18;95531.78;;;2.47;100.00
73674;BME280;61975;48.660;10.164;2022-12-07T00:32:43;95530.72;;;2.39;100.00
73674;BME280;61975;48.660;10.164;2022-12-07T00:35:08;95531.06;;;2.38;100.00
73674;BME280;61975;48.660;10.164;2022-12-07T00:37:34;95525.56;;;2.38;100.00
73674;BME280;61975;48.660;10.164;2022-12-07T00:39:59;95523.28;;;2.40;100.00
73674;BME280;61975;48.660;10.164;2022-12-07T00:42:25;95527.66;;;2.41;100.00
73674;BME280;61975;48.660;10.164;2022-12-07T00:44:50;95525.38;;;2.43;100.00
73674;BME280;61975;48.660;10.164;2022-12-07T00:47:16;95526.97;;;2.44;100.00
73674;BME280;61975;48.660;10.164;2022-12-07T00:49:41;95523.44;;;2.43;100.00
73674;BME280;61975;48.660;10.164;2022-12-07T00:52:06;95526.97;;;2.44;100.00
73674;BME280;61975;48.660;10.164;2022-12-07T00:54:32;95532.16;;;2.37;100.00
73674;BME280;61975;48.660;10.164;2022-12-07T00:56:57;95527.19;;;2.39;100.00
73674;BME280;61975;48.660;10.164;2022-12-07T00:59:22;95530.25;;;2.37;100.00
73674;BME280;61975;48.660;10.164;2022-12-07T01:01:48;95530.09;;;2.34;100.00
73674;BME280;61975;48.660;10.164;2022-12-07T01:04:13;95528.16;;;2.34;100.00
73674;BME280;61975;48.660;10.164;2022-12-07T01:06:39;95525.09;;;2.36;100.00
73674;BME280;61975;48.660;10.164;2022-12-07T01:09:04;95526.03;;;2.40;100.00
73674;BME280;61975;48.660;10.164;2022-12-07T01:11:31;95520.56;;;2.40;100.00
73674;BME280;61975;48.660;10.164;2022-12-07T01:13:58;95520.56;;;2.40;100.00
73674;BME280;61975;48.660;10.164;2022-12-07T01:16:26;95518.16;;;2.38;100.00
73674;BME280;61975;48.660;10.164;2022-12-07T01:18:53;95513.47;;;2.39;100.00
73674;BME280;61975;48.660;10.164;2022-12-07T01:21:22;95515.88;;;2.40;100.00
73674;BME280;61975;48.660;10.164;2022-12-07T01:23:48;95521.03;;;2.42;100.00
73674;BME280;61975;48.660;10.164;2022-12-07T01:26:19;95518.63;;;2.40;100.00
73674;BME280;61975;48.660;10.164;2022-12-07T01:28:45;95514.28;;;2.39;100.00
73674;BME280;61975;48.660;10.164;2022-12-07T01:31:19;95516.34;;;2.42;100.00
73674;BME280;61975;48.660;10.164;2022-12-07T01:33:47;95521.16;;;2.45;100.00
73674;BME280;61975;48.660;10.164;2022-12-07T01:36:19;95521.16;;;2.45;100.00
73674;BME280;61975;48.660;10.164;2022-12-07T01:38:46;95522.63;;;2.43;100.00
73674;BME280;61975;48.660;10.164;2022-12-07T01:41:13;95520.56;;;2.40;100.00
73674;BME280;61975;48.660;10.164;2022-12-07T01:46:32;95528.16;;;2.34;100.00
73674;BME280;61975;48.660;10.164;2022-12-07T01:48:58;95520.56;;;2.40;100.00
73674;BME280;61975;48.660;10.164;2022-12-07T01:51:25;95518.63;;;2.40;100.00
73674;BME280;61975;48.660;10.164;2022-12-07T01:53:51;95520.28;;;2.33;100.00
73674;BME280;61975;48.660;10.164;2022-12-07T01:56:19;95518.03;;;2.35;100.00
73674;BME280;61975;48.660;10.164;2022-12-07T01:58:47;95514.81;;;2.33;100.00
73674;BME280;61975;48.660;10.164;2022-12-07T02:01:14;95517.75;;;2.28;100.00
73674;BME280;61975;48.660;10.164;2022-12-07T02:03:42;95527.91;;;2.27;100.00
73674;BME280;61975;48.660;10.164;2022-12-07T02:06:08;95524.72;;;2.25;100.00
73674;BME280;61975;48.660;10.164;2022-12-07T02:08:35;95520.81;;;2.26;100.00
73674;BME280;61975;48.660;10.164;2022-12-07T02:11:02;95522.56;;;2.31;100.00
73674;BME280;61975;48.660;10.164;2022-12-07T02:13:31;95524.16;;;2.32;100.00
73674;BME280;61975;48.660;10.164;2022-12-07T02:18:28;95527.09;;;2.27;100.00
73674;BME280;61975;48.660;10.164;2022-12-07T02:29:33;95524.50;;;2.30;100.00
73674;BME280;61975;48.660;10.164;2022-12-07T02:32:08;95522.44;;;2.27;100.00
73674;BME280;61975;48.660;10.164;2022-12-07T02:35:05;95523.56;;;2.26;100.00
73674;BME280;61975;48.660;10.164;2022-12-07T02:40:55;95530.97;;;2.26;100.00
73674;BME280;61975;48.660;10.164;2022-12-07T02:43:34;95526.50;;;2.21;100.00
73674;BME280;61975;48.660;10.164;2022-12-07T02:46:11;95525.38;;;2.22;100.00
73674;BME280;61975;48.660;10.164;2022-12-07T02:48:39;95534.84;;;2.25;100.00
73674;BME280;61975;48.660;10.164;2022-12-07T02:51:06;95530.53;;;2.24;100.00
73674;BME280;61975;48.660;10.164;2022-12-07T02:53:42;95531.25;;;2.33;100.00
73674;BME280;61975;48.660;10.164;2022-12-07T03:02:05;95520.53;;;1.99;100.00
73674;BME280;61975;48.660;10.164;2022-12-07T03:07:47;95510.94;;;1.93;100.00
73674;BME280;61975;48.660;10.164;2022-12-07T03:18:00;95522.97;;;1.92;100.00
73674;BME280;61975;48.660;10.164;2022-12-07T03:20:29;95511.59;;;1.90;100.00
73674;BME280;61975;48.660;10.164;2022-12-07T03:22:56;95510.94;;;1.93;100.00
73674;BME280;61975;48.660;10.164;2022-12-07T03:25:23;95509.44;;;1.95;100.00
73674;BME280;61975;48.660;10.164;2022-12-07T03:27:53;95511.88;;;1.97;100.00
73674;BME280;61975;48.660;10.164;2022-12-07T03:30:35;95519.53;;;2.03;100.00
73674;BME280;61975;48.660;10.164;2022-12-07T03:33:17;95514.38;;;2.02;100.00
73674;BME280;61975;48.660;10.164;2022-12-07T03:35:56;95516.00;;;2.03;100.00
73674;BME280;61975;48.660;10.164;2022-12-07T03:38:30;95523.09;;;2.04;100.00
73674;BME280;61975;48.660;10.164;2022-12-07T03:41:12;95520.94;;;2.09;100.00
73674;BME280;61975;48.660;10.164;2022-12-07T03:43:41;95522.88;;;2.09;100.00
73674;BME280;61975;48.660;10.164;2022-12-07T03:46:20;95519.03;;;2.10;100.00
73674;BME280;61975;48.660;10.164;2022-12-07T03:49:15;95514.34;;;2.10;100.00
73674;BME280;61975;48.660;10.164;2022-12-07T03:54:47;95519.97;;;2.14;100.00
73674;BME280;61975;48.660;10.164;2022-12-07T03:57:15;95514.66;;;2.09;100.00
73674;BME280;61975;48.660;10.164;2022-12-07T03:59:42;95513.72;;;2.05;100.00
73674;BME280;61975;48.660;10.164;2022-12-07T04:02:11;95512.13;;;2.04;100.00
73674;BME280;61975;48.660;10.164;2022-12-07T04:04:38;95515.31;;;2.06;100.00
73674;BME280;61975;48.660;10.164;2022-12-07T04:07:03;95520.13;;;2.09;100.00
73674;BME280;61975;48.660;10.164;2022-12-07T04:09:29;95516.75;;;2.12;100.00
73674;BME280;61975;48.660;10.164;2022-12-07T04:11:54;95515.09;;;2.19;100.00
73674;BME280;61975;48.660;10.164;2022-12-07T04:14:20;95512.47;;;2.23;100.00
73674;BME280;61975;48.660;10.164;2022-12-07T04:16:53;95523.03;;;2.12;100.00
73674;BME280;61975;48.660;10.164;2022-12-07T04:19:20;95509.94;;;2.18;100.00
73674;BME280;61975;48.660;10.164;2022-12-07T04:21:47;95508.75;;;2.07;100.00
73674;BME280;61975;48.660;10.164;2022-12-07T04:24:14;95502.13;;;2.08;100.00
73674;BME280;61975;48.660;10.164;2022-12-07T04:26:40;95504.53;;;2.09;100.00
73674;BME280;61975;48.660;10.164;2022-12-07T04:29:06;95513.06;;;2.08;100.00
73674;BME280;61975;48.660;10.164;2022-12-07T04:31:32;95505.66;;;2.08;100.00
73674;BME280;61975;48.660;10.164;2022-12-07T04:33:57;95513.06;;;2.08;100.00
73674;BME280;61975;48.660;10.164;2022-12-07T04:36:22;95499.84;;;2.10;100.00
73674;BME280;61975;48.660;10.164;2022-12-07T04:38:48;95500.31;;;2.12;100.00
73674;BME280;61975;48.660;10.164;2022-12-07T04:41:13;95495.31;;;2.14;100.00
73674;BME280;61975;48.660;10.164;2022-12-07T04:43:39;95502.94;;;2.08;100.00
73674;BME280;61975;48.660;10.164;2022-12-07T04:46:04;95497.13;;;2.10;100.00
73674;BME280;61975;48.660;10.164;2022-12-07T04:48:30;95499.91;;;2.01;100.00
73674;BME280;61975;48.660;10.164;2022-12-07T04:50:56;95510.19;;;2.04;100.00
73674;BME280;61975;48.660;10.164;2022-12-07T04:53:22;95500.53;;;2.07;100.00
73674;BME280;61975;48.660;10.164;2022-12-07T04:55:47;95494.13;;;2.03;100.00
73674;BME280;61975;48.660;10.164;2022-12-07T04:58:13;95494.13;;;2.03;100.00
73674;BME280;61975;48.660;10.164;2022-12-07T05:00:39;95500.09;;;1.96;100.00
73674;BME280;61975;48.660;10.164;2022-12-07T05:03:04;95504.97;;;1.91;100.00
73674;BME280;61975;48.660;10.164;2022-12-07T05:05:30;95500.97;;;1.88;100.00
73674;BME280;61975;48.660;10.164;2022-12-07T05:07:55;95496.28;;;1.89;100.00
73674;BME280;61975;48.660;10.164;2022-12-07T05:10:21;95500.97;;;1.88;100.00
73674;BME280;61975;48.660;10.164;2022-12-07T05:12:46;95502.78;;;1.84;100.00
73674;BME280;61975;48.660;10.164;2022-12-07T05:15:13;95495.38;;;1.76;100.00
73674;BME280;61975;48.660;10.164;2022-12-07T05:17:38;95496.88;;;1.74;100.00
73674;BME280;61975;48.660;10.164;2022-12-07T05:20:05;95497.34;;;1.76;100.00
73674;BME280;61975;48.660;10.164;2022-12-07T05:22:30;95495.25;;;1.73;100.00
73674;BME280;61975;48.660;10.164;2022-12-07T05:24:56;95488.03;;;1.68;100.00
73674;BME280;61975;48.660;10.164;2022-12-07T05:27:21;95488.56;;;1.62;100.00
73674;BME280;61975;48.660;10.164;2022-12-07T05:29:47;95486.53;;;1.50;100.00
73674;BME280;61975;48.660;10.164;2022-12-07T05:32:12;95478.28;;;1.59;100.00
73674;BME280;61975;48.660;10.164;2022-12-07T05:34:38;95486.06;;;1.48;100.00
73674;BME280;61975;48.660;10.164;2022-12-07T05:37:03;95490.63;;;1.36;100.00
73674;BME280;61975;48.660;10.164;2022-12-07T05:39:29;95493.03;;;1.37;100.00
73674;BME280;61975;48.660;10.164;2022-12-07T05:41:54;95489.03;;;1.35;100.00
73674;BME280;61975;48.660;10.164;2022-12-07T05:44:42;95485.34;;;1.31;100.00
73674;BME280;61975;48.660;10.164;2022-12-07T05:47:08;95487.44;;;1.34;100.00
73674;BME280;61975;48.660;10.164;2022-12-07T05:49:33;95490.81;;;1.31;100.00
73674;BME280;61975;48.660;10.164;2022-12-07T05:51:59;95493.56;;;1.31;100.00
73674;BME280;61975;48.660;10.164;2022-12-07T05:54:24;95491.94;;;1.30;100.00
73674;BME280;61975;48.660;10.164;2022-12-07T05:56:50;95482.63;;;1.31;100.00
73674;BME280;61975;48.660;10.164;2022-12-07T05:59:16;95485.34;;;1.31;100.00
73674;BME280;61975;48.660;10.164;2022-12-07T06:01:51;95492.09;;;1.33;100.00
73674;BME280;61975;48.660;10.164;2022-12-07T06:04:18;95482.25;;;1.41;100.00
73674;BME280;61975;48.660;10.164;2022-12-07T06:06:43;95482.53;;;1.48;100.00
73674;BME280;61975;48.660;10.164;2022-12-07T06:09:09;95488.66;;;1.45;100.00
73674;BME280;61975;48.660;10.164;2022-12-07T06:11:35;95481.72;;;1.47;100.00
73674;BME280;61975;48.660;10.164;2022-12-07T06:14:19;95478.47;;;1.54;100.00
73674;BME280;61975;48.660;10.164;2022-12-07T06:16:44;95477.47;;;1.58;100.00
73674;BME280;61975;48.660;10.164;2022-12-07T06:19:09;95487.91;;;1.65;100.00
73674;BME280;61975;48.660;10.164;2022-12-07T06:21:35;95489.50;;;1.66;100.00
73674;BME280;61975;48.660;10.164;2022-12-07T06:24:00;95493.41;;;1.65;100.00
73674;BME280;61975;48.660;10.164;2022-12-07T06:26:25;95491.44;;;1.65;100.00
73674;BME280;61975;48.660;10.164;2022-12-07T06:28:51;95486.78;;;1.66;100.00
73674;BME280;61975;48.660;10.164;2022-12-07T06:31:16;95485.97;;;1.65;100.00
73674;BME280;61975;48.660;10.164;2022-12-07T06:33:42;95493.53;;;1.68;100.00
73674;BME280;61975;48.660;10.164;2022-12-07T06:36:08;95486.63;;;1.62;100.00
73674;BME280;61975;48.660;10.164;2022-12-07T06:38:34;95478.09;;;1.64;100.00
73674;BME280;61975;48.660;10.164;2022-12-07T06:41:00;95472.22;;;1.53;100.00
73674;BME280;61975;48.660;10.164;2022-12-07T06:43:25;95471.22;;;1.58;100.00
73674;BME280;61975;48.660;10.164;2022-12-07T06:45:51;95479.22;;;1.63;100.00
73674;BME280;61975;48.660;10.164;2022-12-07T06:48:16;95471.97;;;1.67;100.00
73674;BME280;61975;48.660;10.164;2022-12-07T06:50:44;95469.50;;;1.74;100.00
73674;BME280;61975;48.660;10.164;2022-12-07T06:53:10;95474.63;;;1.75;100.00
73674;BME280;61975;48.660;10.164;2022-12-07T06:55:35;95476.44;;;1.71;100.00
73674;BME280;61975;48.660;10.164;2022-12-07T06:58:01;95476.78;;;1.70;100.00
73674;BME280;61975;48.660;10.164;2022-12-07T07:00:27;95482.53;;;1.77;100.00
73674;BME280;61975;48.660;10.164;2022-12-07T07:02:53;95492.19;;;1.74;100.00
73674;BME280;61975;48.660;10.164;2022-12-07T07:05:18;95492.97;;;1.75;100.00
73674;BME280;61975;48.660;10.164;2022-12-07T07:07:46;95496.69;;;1.79;100.00
73674;BME280;61975;48.660;10.164;2022-12-07T07:10:13;95508.09;;;1.81;99.72
73674;BME280;61975;48.660;10.164;2022-12-07T07:12:39;95497.63;;;1.83;100.00
73674;BME280;61975;48.660;10.164;2022-12-07T07:15:05;95496.63;;;1.87;100.00
73674;BME280;61975;48.660;10.164;2022-12-07T07:17:30;95500.63;;;1.90;100.00
73674;BME280;61975;48.660;10.164;2022-12-07T07:19:56;95498.34;;;1.92;99.55
73674;BME280;61975;48.660;10.164;2022-12-07T07:22:21;95504.78;;;1.96;100.00
73674;BME280;61975;48.660;10.164;2022-12-07T07:24:47;95509.44;;;1.95;99.26
73674;BME280;61975;48.660;10.164;2022-12-07T07:27:12;95506.38;;;1.97;98.87
73674;BME280;61975;48.660;10.164;2022-12-07T07:29:37;95507.16;;;1.97;100.00
73674;BME280;61975;48.660;10.164;2022-12-07T07:32:03;95514.28;;;1.98;100.00
73674;BME280;61975;48.660;10.164;2022-12-07T07:34:28;95512.13;;;2.04;100.00
73674;BME280;61975;48.660;10.164;2022-12-07T07:36:54;95499.22;;;2.04;100.00
73674;BME280;61975;48.660;10.164;2022-12-07T07:39:19;95501.50;;;2.02;100.00
73674;BME280;61975;48.660;10.164;2022-12-07T07:41:45;95504.69;;;2.04;100.00
73674;BME280;61975;48.660;10.164;2022-12-07T07:44:11;95513.41;;;2.06;100.00
73674;BME280;61975;48.660;10.164;2022-12-07T07:46:36;95514.53;;;2.05;100.00
73674;BME280;61975;48.660;10.164;2022-12-07T07:49:01;95513.72;;;2.05;100.00
73674;BME280;61975;48.660;10.164;2022-12-07T07:51:27;95512.41;;;2.11;100.00
73674;BME280;61975;48.660;10.164;2022-12-07T07:53:52;95517.88;;;2.11;100.00
73674;BME280;61975;48.660;10.164;2022-12-07T07:56:17;95522.53;;;2.10;100.00
73674;BME280;61975;48.660;10.164;2022-12-07T07:58:43;95517.88;;;2.11;100.00
73674;BME280;61975;48.660;10.164;2022-12-07T08:01:08;95523.22;;;2.07;100.00
73674;BME280;61975;48.660;10.164;2022-12-07T08:03:34;95526.44;;;2.09;100.00
73674;BME280;61975;48.660;10.164;2022-12-07T08:06:02;95529.16;;;2.09;100.00
73674;BME280;61975;48.660;10.164;2022-12-07T08:08:27;95528.44;;;2.21;100.00
73674;BME280;61975;48.660;10.164;2022-12-07T08:10:53;95529.91;;;2.18;99.68
73674;BME280;61975;48.660;10.164;2022-12-07T08:13:18;95543.41;;;2.23;99.54
73674;BME280;61975;48.660;10.164;2022-12-07T08:15:46;95540.34;;;2.25;99.14
73674;BME280;61975;48.660;10.164;2022-12-07T08:18:12;95552.09;;;2.25;97.72
73674;BME280;61975;48.660;10.164;2022-12-07T08:20:39;95537.72;;;2.28;97.29
73674;BME280;61975;48.660;10.164;2022-12-07T08:23:06;95544.28;;;2.36;95.59
73674;BME280;61975;48.660;10.164;2022-12-07T08:25:32;95544.75;;;2.38;94.67
73674;BME280;61975;48.660;10.164;2022-12-07T08:27:58;95542.47;;;2.40;94.59
73674;BME280;61975;48.660;10.164;2022-12-07T08:30:23;95550.03;;;2.43;93.23
73674;BME280;61975;48.660;10.164;2022-12-07T08:32:49;95551.28;;;2.45;92.85
73674;BME280;61975;48.660;10.164;2022-12-07T08:35:15;95542.47;;;2.40;93.52
73674;BME280;61975;48.660;10.164;2022-12-07T08:37:41;95555.03;;;2.41;93.66
73674;BME280;61975;48.660;10.164;2022-12-07T08:40:08;95552.56;;;2.48;90.56
73674;BME280;61975;48.660;10.164;2022-12-07T08:42:34;95553.41;;;2.40;91.36
73674;BME280;61975;48.660;10.164;2022-12-07T08:45:10;95553.31;;;2.36;91.43
73674;BME280;61975;48.660;10.164;2022-12-07T08:47:38;95551.00;;;2.38;91.29
73674;BME280;61975;48.660;10.164;2022-12-07T08:50:05;95550.94;;;2.47;91.37
73674;BME280;61975;48.660;10.164;2022-12-07T08:52:33;95538.66;;;2.53;90.30
73674;BME280;61975;48.660;10.164;2022-12-07T08:55:00;95543.91;;;2.58;88.90
73674;BME280;61975;48.660;10.164;2022-12-07T08:57:27;95550.38;;;2.62;89.61
73674;BME280;61975;48.660;10.164;2022-12-07T08:59:53;95545.66;;;2.62;88.44
73674;BME280;61975;48.660;10.164;2022-12-07T09:02:18;95542.41;;;2.69;88.17
73674;BME280;61975;48.660;10.164;2022-12-07T09:04:43;95544.44;;;2.72;87.41
73674;BME280;61975;48.660;10.164;2022-12-07T09:07:09;95538.84;;;2.68;86.63
73674;BME280;61975;48.660;10.164;2022-12-07T09:09:34;95541.91;;;2.67;85.76
73674;BME280;61975;48.660;10.164;2022-12-07T09:12:00;95547.56;;;2.70;86.36
73674;BME280;61975;48.660;10.164;2022-12-07T09:14:25;95545.41;;;2.76;84.98
73674;BME280;61975;48.660;10.164;2022-12-07T09:19:18;95547.41;;;2.67;84.47
73674;BME280;61975;48.660;10.164;2022-12-07T09:21:44;95539.41;;;2.62;84.06
73674;BME280;61975;48.660;10.164;2022-12-07T09:24:11;95540.41;;;2.57;84.49
73674;BME280;61975;48.660;10.164;2022-12-07T09:26:37;95541.66;;;2.60;84.23
73674;BME280;61975;48.660;10.164;2022-12-07T09:29:04;95535.19;;;2.64;84.61
73674;BME280;61975;48.660;10.164;2022-12-07T09:31:30;95536.69;;;2.74;84.81
73674;BME280;61975;48.660;10.164;2022-12-07T09:33:57;95533.53;;;2.84;83.74
73674;BME280;61975;48.660;10.164;2022-12-07T09:36:23;95537.03;;;2.93;82.20
73674;BME280;61975;48.660;10.164;2022-12-07T09:38:48;95524.47;;;3.04;81.73
73674;BME280;61975;48.660;10.164;2022-12-07T09:41:13;95538.63;;;3.06;79.84
73674;BME280;61975;48.660;10.164;2022-12-07T09:43:40;95532.97;;;3.11;80.08
73674;BME280;61975;48.660;10.164;2022-12-07T09:46:10;95538.09;;;3.13;79.30
73674;BME280;61975;48.660;10.164;2022-12-07T09:48:38;95540.09;;;3.24;78.70
73674;BME280;61975;48.660;10.164;2022-12-07T09:51:22;95528.66;;;3.34;77.61
73674;BME280;61975;48.660;10.164;2022-12-07T09:53:49;95525.66;;;3.27;77.00
73674;BME280;61975;48.660;10.164;2022-12-07T09:56:16;95530.13;;;3.32;77.46
73674;BME280;61975;48.660;10.164;2022-12-07T09:58:42;95518.63;;;3.38;77.04
73674;BME280;61975;48.660;10.164;2022-12-07T10:01:18;95525.38;;;3.41;77.46
73674;BME280;61975;48.660;10.164;2022-12-07T10:03:50;95515.88;;;3.50;78.25
73674;BME280;61975;48.660;10.164;2022-12-07T10:06:16;95513.59;;;3.52;77.49
73674;BME280;61975;48.660;10.164;2022-12-07T10:08:42;95513.84;;;3.59;77.55
73674;BME280;61975;48.660;10.164;2022-12-07T10:11:09;95507.44;;;3.67;76.78
73674;BME280;61975;48.660;10.164;2022-12-07T10:13:42;95503.31;;;3.73;76.48
73674;BME280;61975;48.660;10.164;2022-12-07T10:18:54;95501.25;;;3.82;75.25
73674;BME280;61975;48.660;10.164;2022-12-07T10:21:24;95497.03;;;3.85;76.02
73674;BME280;61975;48.660;10.164;2022-12-07T10:26:38;95497.59;;;3.90;74.28
73674;BME280;61975;48.660;10.164;2022-12-07T10:31:38;95495.97;;;3.89;74.55
73674;BME280;61975;48.660;10.164;2022-12-07T10:34:20;95491.63;;;3.88;74.23
73674;BME280;61975;48.660;10.164;2022-12-07T10:36:47;95492.88;;;3.91;74.34
73674;BME280;61975;48.660;10.164;2022-12-07T10:39:19;95489.34;;;3.90;74.01
73674;BME280;61975;48.660;10.164;2022-12-07T10:42:00;95490.38;;;3.86;75.71
73674;BME280;61975;48.660;10.164;2022-12-07T10:44:33;95492.09;;;3.90;75.59
73674;BME280;61975;48.660;10.164;2022-12-07T10:47:18;95494.13;;;3.93;75.25
73674;BME280;61975;48.660;10.164;2022-12-07T11:00:23;95476.72;;;4.13;75.36
73674;BME280;61975;48.660;10.164;2022-12-07T11:11:26;95462.03;;;4.33;73.47
73674;BME280;61975;48.660;10.164;2022-12-07T11:22:40;95447.63;;;4.24;75.00
73674;BME280;61975;48.660;10.164;2022-12-07T11:28:18;95449.81;;;4.19;75.77
73674;BME280;61975;48.660;10.164;2022-12-07T11:36:41;95440.44;;;4.20;75.63
73674;BME280;61975;48.660;10.164;2022-12-07T11:39:28;95439.72;;;4.23;75.00
73674;BME280;61975;48.660;10.164;2022-12-07T11:42:22;95438.03;;;4.18;75.35
73674;BME280;61975;48.660;10.164;2022-12-07T11:44:48;95439.97;;;4.18;74.74
73674;BME280;61975;48.660;10.164;2022-12-07T11:47:25;95435.28;;;4.18;75.77
73674;BME280;61975;48.660;10.164;2022-12-07T11:52:55;95430.97;;;4.05;75.83
73674;BME280;61975;48.660;10.164;2022-12-07T11:55:57;95422.72;;;4.05;76.23
73674;BME280;61975;48.660;10.164;2022-12-07T12:03:52;95416.09;;;4.06;76.88
73674;BME280;61975;48.660;10.164;2022-12-07T12:06:19;95412.22;;;4.07;77.07
73674;BME280;61975;48.660;10.164;2022-12-07T12:08:59;95415.94;;;4.15;77.12
73674;BME280;61975;48.660;10.164;2022-12-07T12:14:19;95406.88;;;4.26;77.08
73674;BME280;61975;48.660;10.164;2022-12-07T12:22:48;95402.97;;;4.27;75.99
73674;BME280;61975;48.660;10.164;2022-12-07T12:26:14;95392.97;;;4.35;75.34
73674;BME280;61975;48.660;10.164;2022-12-07T12:31:09;95394.03;;;4.30;75.07
73674;BME280;61975;48.660;10.164;2022-12-07T12:33:37;95395.88;;;4.26;74.56
73674;BME280;61975;48.660;10.164;2022-12-07T12:38:51;95403.97;;;4.07;75.63
73674;BME280;61975;48.660;10.164;2022-12-07T12:51:52;95391.56;;;4.13;76.33
73674;BME280;61975;48.660;10.164;2022-12-07T12:59:35;95388.47;;;4.15;77.23
73674;BME280;61975;48.660;10.164;2022-12-07T13:04:51;95381.13;;;4.19;78.15
73674;BME280;61975;48.660;10.164;2022-12-07T13:15:50;95375.78;;;4.10;79.30
73674;BME280;61975;48.660;10.164;2022-12-07T13:26:18;95363.06;;;3.90;81.36
73674;BME280;61975;48.660;10.164;2022-12-07T13:28:50;95366.22;;;3.92;82.20
73674;BME280;61975;48.660;10.164;2022-12-07T13:31:25;95352.50;;;3.92;82.04
73674;BME280;61975;48.660;10.164;2022-12-07T13:33:55;95356.19;;;3.84;83.26
73674;BME280;61975;48.660;10.164;2022-12-07T13:36:23;95361.44;;;3.89;82.31
73674;BME280;61975;48.660;10.164;2022-12-07T13:38:54;95355.72;;;3.94;81.74
73674;BME280;61975;48.660;10.164;2022-12-07T13:41:21;95362.78;;;3.95;81.50
73674;BME280;61975;48.660;10.164;2022-12-07T13:44:08;95358.88;;;3.96;81.18
73674;BME280;61975;48.660;10.164;2022-12-07T13:46:55;95358.41;;;4.06;80.53
73674;BME280;61975;48.660;10.164;2022-12-07T13:49:28;95353.19;;;3.89;81.81
73674;BME280;61975;48.660;10.164;2022-12-07T13:51:55;95358.38;;;3.79;82.84
73674;BME280;61975;48.660;10.164;2022-12-07T13:54:31;95358.13;;;3.84;83.06
73674;BME280;61975;48.660;10.164;2022-12-07T13:56:57;95361.47;;;3.77;83.40
73674;BME280;61975;48.660;10.164;2022-12-07T13:59:24;95350.63;;;3.69;84.13
73674;BME280;61975;48.660;10.164;2022-12-07T14:01:51;95358.06;;;3.68;84.32
73674;BME280;61975;48.660;10.164;2022-12-07T14:06:50;95358.19;;;3.60;85.92
73674;BME280;61975;48.660;10.164;2022-12-07T14:09:24;95359.44;;;3.62;86.36
73674;BME280;61975;48.660;10.164;2022-12-07T14:11:52;95355.44;;;3.60;86.84
73674;BME280;61975;48.660;10.164;2022-12-07T14:14:21;95358.75;;;3.65;85.69
73674;BME280;61975;48.660;10.164;2022-12-07T14:17:16;95361.06;;;3.63;85.76
73674;BME280;61975;48.660;10.164;2022-12-07T14:22:37;95367.00;;;3.41;87.90
73674;BME280;61975;48.660;10.164;2022-12-07T14:25:17;95364.06;;;3.46;87.64
73674;BME280;61975;48.660;10.164;2022-12-07T14:30:22;95363.69;;;3.36;87.99
73674;BME280;61975;48.660;10.164;2022-12-07T14:32:54;95355.94;;;3.26;89.93
73674;BME280;61975;48.660;10.164;2022-12-07T14:35:21;95369.44;;;3.31;89.24
73674;BME280;61975;48.660;10.164;2022-12-07T14:37:48;95359.97;;;3.28;90.16
73674;BME280;61975;48.660;10.164;2022-12-07T14:40:19;95353.19;;;3.26;90.42
73674;BME280;61975;48.660;10.164;2022-12-07T14:42:46;95362.22;;;3.26;91.01
73674;BME280;61975;48.660;10.164;2022-12-07T14:45:15;95363.03;;;3.27;91.44
73674;BME280;61975;48.660;10.164;2022-12-07T14:47:42;95356.63;;;3.35;90.53
73674;BME280;61975;48.660;10.164;2022-12-07T14:50:10;95354.34;;;3.25;90.93
73674;BME280;61975;48.660;10.164;2022-12-07T14:52:36;95361.31;;;3.22;91.58
73674;BME280;61975;48.660;10.164;2022-12-07T14:55:01;95352.63;;;3.20;92.04
73674;BME280;61975;48.660;10.164;2022-12-07T14:57:26;95347.03;;;3.17;92.25
73674;BME280;61975;48.660;10.164;2022-12-07T14:59:52;95357.88;;;3.13;92.25
73674;BME280;61975;48.660;10.164;2022-12-07T15:02:17;95354.94;;;3.18;92.17
73674;BME280;61975;48.660;10.164;2022-12-07T15:04:42;95351.50;;;3.09;93.12
73674;BME280;61975;48.660;10.164;2022-12-07T15:07:20;95354.72;;;3.11;93.83
73674;BME280;61975;48.660;10.164;2022-12-07T15:09:47;95353.56;;;3.12;93.67
73674;BME280;61975;48.660;10.164;2022-12-07T15:12:13;95361.44;;;3.14;93.19
73674;BME280;61975;48.660;10.164;2022-12-07T15:14:38;95359.97;;;3.04;93.98
73674;BME280;61975;48.660;10.164;2022-12-07T15:17:04;95361.09;;;3.03;94.21
73674;BME280;61975;48.660;10.164;2022-12-07T15:19:29;95352.06;;;3.03;94.21
73674;BME280;61975;48.660;10.164;2022-12-07T15:21:55;95355.38;;;2.96;94.86
73674;BME280;61975;48.660;10.164;2022-12-07T15:24:21;95355.72;;;2.94;95.68
73674;BME280;61975;48.660;10.164;2022-12-07T15:26:49;95352.63;;;2.96;95.81
73674;BME280;61975;48.660;10.164;2022-12-07T15:29:14;95344.06;;;2.97;95.20
73674;BME280;61975;48.660;10.164;2022-12-07T15:31:41;95351.94;;;2.99;95.42